Etusivu
METAR-TAF:

METAR-TAF

Lentoasemat :

Oulu, Suomi

Oulun lentoasema

Leveyspiiri: 64-56N, Pituuspiiri: 025-22E, korkeus merenpinnasta: 12 m

Tämänhetkinen sää

Tämä raportti tehtiin 26 minuuttia sitten, kello 23.50 UTC
Tuuli 4 kn luoteesta
Lämpötila 9°C
Kosteus 93%
Ilmanpaine 1012 hPa
Näkyvyys 10 km tai enemmän

METAR: EFOU 282350Z AUTO 31004KT 9999 FEW032/// 09/08 Q1012

Aika: 03:16 (00:16 UTC)

Sääennuste

Tämä raportti tehtiin 43 minuuttia sitten, kello 23.33 UTC
Ennuste voimassa 29. päivästä klo 00 UTC - 29. päivään klo 24 UTC
Tuuli 8 kn lännestä/luoteesta
Näkyvyys 10 km tai enemmän
Hajonneita pilviä 3500 ft:n korkeudessa
Todennäköisyys 30%
29. päivästä klo 00 UTC - 29. päivään klo 03 UTC
Näkyvyys: 2000 m
sumuhattaroita

TAF: EFOU 282333Z 2900/2924 30008KT 9999 BKN035 PROB30 2900/2903 2000 BCFG

Säähavainnot ja -ennusteet yli 4000 lentoasemalta (METAR- ja TAF-raportit).

Käytössä olevat sääasemat on merkitty karttaan keltaisilla ja punaisilla pisteillä.

Aseta hiiri pisteen päälle nähdäksesi sääaseman nimen.

Klikkaa sitten nähdäksesi säähavainnot ja -ennusteet.

Kartan vaihtaminen: klikkaa mustalla rastilla varustettuja vihreitä pisteitä, niin voit zoomata sisään; viivalla varustettua vihreää pistettä, niin voit zoomata ulos tai vihreitä nuolia, niin pääset viereisille kartoille.


METAR-TAF: